EPLL/LCJ METAR and TAF weather

Enter ICAO airport designator
Station Type Date Time Source
EPLL METAR 2018/01/24 07:30 UTC NOAA

EPLL 240730Z 15006KT 4600 BR BKN036 OVC043 00/M01 Q1022


Station Type Date Time Source
EPLL Decoded METAR 2018/01/24 07:30 UTC NOAA

Station name not available
Jan 24, 2018 - 02:30 AM EST / 2018.01.24 0730 UTC
Wind: from the SSE (150 degrees) at 7 MPH (6 KT):0
Visibility: 2 mile(s):0
Sky conditions: overcast
Weather: mist
Temperature: 32 F (0 C)
Windchill: 24 F (-4 C):1
Dew Point: 30 F (-1 C)
Relative Humidity: 92%
Pressure (altimeter): 30.18 in. Hg (1022 hPa)
ob: EPLL 240730Z 15006KT 4600 BR BKN036 OVC043 00/M01 Q1022
cycle: 7

Station Type Date Time Source
EPLL TAF 2018/01/24 06:00 UTC NOAA

TAF EPLL 240530Z 2406/2506 18010KT 7000 BKN025
TEMPO 2406/2409 3000 -RASN BR BKN008 PROB40
TEMPO 2406/2506 19015G25KT PROB40 2409/2418 4000 BR BKN008


Example: see airport list